createdAt,value
2018-11-03T00:01:59.989Z,34.37
2018-11-03T00:04:28.702Z,33.80
2018-11-03T00:06:57.464Z,29.83
2018-11-03T00:09:26.027Z,33.13
2018-11-03T00:11:54.584Z,36.00
2018-11-03T00:14:23.169Z,31.93
2018-11-03T00:16:51.793Z,31.90
2018-11-03T00:19:20.334Z,31.40
2018-11-03T00:21:48.931Z,31.17
2018-11-03T00:24:17.646Z,29.43
2018-11-03T00:26:46.355Z,34.00
2018-11-03T00:29:15.592Z,31.07
2018-11-03T00:31:44.093Z,27.53
2018-11-03T00:34:12.871Z,31.30
2018-11-03T00:36:41.317Z,29.23
2018-11-03T00:39:11.738Z,29.80
2018-11-03T00:41:40.573Z,33.37
2018-11-03T00:44:09.692Z,29.77
2018-11-03T00:46:38.725Z,34.40
2018-11-03T00:49:07.471Z,30.63
2018-11-03T00:51:36.130Z,31.83
2018-11-03T00:54:04.748Z,33.37
2018-11-03T00:56:33.372Z,32.87
2018-11-03T00:59:02.068Z,32.67
2018-11-03T01:01:30.583Z,35.87
2018-11-03T01:03:59.070Z,33.63
2018-11-03T01:06:28.204Z,34.47
2018-11-03T01:08:56.864Z,30.63
2018-11-03T01:11:25.478Z,31.03
2018-11-03T01:13:54.022Z,32.87
2018-11-03T01:16:22.425Z,34.47
2018-11-03T01:18:51.070Z,37.87
2018-11-03T01:21:19.810Z,38.20
2018-11-03T01:23:48.559Z,33.00
2018-11-03T01:26:17.069Z,35.90
2018-11-03T01:28:45.650Z,36.53
2018-11-03T01:31:14.205Z,35.53
2018-11-03T01:33:42.836Z,36.73
2018-11-03T01:36:11.533Z,35.93
2018-11-03T01:38:40.249Z,35.60
2018-11-03T01:41:08.881Z,42.03
2018-11-03T01:43:37.445Z,43.27
2018-11-03T01:46:06.330Z,42.77
2018-11-03T01:48:35.063Z,39.67
2018-11-03T01:51:03.787Z,47.60
2018-11-03T01:53:32.454Z,44.70
2018-11-03T01:56:00.954Z,48.33
2018-11-03T01:58:29.567Z,48.50
2018-11-03T02:00:58.069Z,44.97
2018-11-03T02:03:26.645Z,46.77
2018-11-03T02:05:55.114Z,49.33
2018-11-03T02:08:23.593Z,49.20
2018-11-03T02:10:52.204Z,46.40
2018-11-03T02:13:20.649Z,48.10
2018-11-03T02:15:49.298Z,40.67
2018-11-03T02:18:17.881Z,42.23
2018-11-03T02:22:15.691Z,43.87
2018-11-03T02:24:44.288Z,43.67
2018-11-03T02:27:12.900Z,48.73
2018-11-03T02:29:41.444Z,48.93
2018-11-03T02:32:09.939Z,45.47
2018-11-03T02:34:38.415Z,49.77
2018-11-03T02:37:06.941Z,45.70
2018-11-03T02:39:35.703Z,49.90
2018-11-03T02:42:04.257Z,47.30
2018-11-03T02:44:33.699Z,50.43
2018-11-03T02:47:02.126Z,52.13
2018-11-03T02:49:30.591Z,51.43
2018-11-03T02:51:59.549Z,50.47
2018-11-03T02:54:28.069Z,52.50
2018-11-03T02:56:56.665Z,55.87
2018-11-03T02:59:25.305Z,54.50
2018-11-03T03:01:53.814Z,55.97
2018-11-03T03:04:22.372Z,48.03
2018-11-03T03:06:50.888Z,47.93
2018-11-03T03:09:19.957Z,50.37
2018-11-03T03:11:48.461Z,49.80
2018-11-03T03:14:17.105Z,56.80
2018-11-03T03:16:45.815Z,55.83
2018-11-03T03:19:14.478Z,60.73
2018-11-03T03:21:43.105Z,63.73
2018-11-03T03:24:11.728Z,53.93
2018-11-03T03:26:40.353Z,60.13
2018-11-03T03:29:10.203Z,62.37
2018-11-03T03:31:38.595Z,59.30
2018-11-03T03:34:07.187Z,59.73
2018-11-03T03:36:35.737Z,64.87
2018-11-03T03:39:05.825Z,66.23
2018-11-03T03:41:34.725Z,59.57
2018-11-03T03:44:03.291Z,65.67
2018-11-03T03:46:32.254Z,64.57
2018-11-03T03:49:00.725Z,61.50
2018-11-03T03:51:29.313Z,59.67
2018-11-03T03:53:58.014Z,63.43
2018-11-03T03:56:26.481Z,62.83
2018-11-03T03:58:54.924Z,63.13
2018-11-03T04:01:23.442Z,63.47
2018-11-03T04:03:52.163Z,63.77
2018-11-03T04:06:21.013Z,65.23
2018-11-03T04:08:49.843Z,67.93
2018-11-03T04:11:18.513Z,67.63
2018-11-03T04:13:47.139Z,70.43
2018-11-03T04:16:15.638Z,71.47
2018-11-03T04:18:44.347Z,68.27
2018-11-03T04:21:16.955Z,73.40
2018-11-03T04:23:45.550Z,82.17
2018-11-03T04:26:14.211Z,72.37
2018-11-03T04:28:42.977Z,71.93
2018-11-03T04:31:11.612Z,69.70
2018-11-03T04:33:40.180Z,71.87
2018-11-03T04:36:08.649Z,65.60
2018-11-03T04:38:37.228Z,68.83
2018-11-03T04:41:06.364Z,69.23
2018-11-03T04:43:34.969Z,62.80
2018-11-03T04:46:03.585Z,70.63
2018-11-03T04:48:32.253Z,70.37
2018-11-03T04:51:00.854Z,62.93
2018-11-03T04:53:29.304Z,66.47
2018-11-03T04:55:57.924Z,64.13
2018-11-03T04:58:26.471Z,68.07
2018-11-03T05:00:55.102Z,68.53
2018-11-03T05:03:23.908Z,69.97
2018-11-03T05:05:52.590Z,72.53
2018-11-03T05:08:21.334Z,75.37
2018-11-03T05:10:49.973Z,75.87
2018-11-03T05:13:18.519Z,81.67
2018-11-03T05:15:47.308Z,74.23
2018-11-03T05:18:15.809Z,77.20
2018-11-03T05:20:44.777Z,72.67
2018-11-03T05:23:13.296Z,78.10
2018-11-03T05:25:42.502Z,79.33
2018-11-03T05:28:11.065Z,69.57
2018-11-03T05:30:40.385Z,79.17
2018-11-03T05:33:08.908Z,79.17
2018-11-03T05:35:37.434Z,76.50
2018-11-03T05:38:07.269Z,77.97
2018-11-03T05:40:35.994Z,83.70
2018-11-03T05:43:04.949Z,81.00
2018-11-03T05:45:33.827Z,79.67
2018-11-03T05:48:02.417Z,79.43
2018-11-03T05:50:31.274Z,78.95
2018-11-03T05:52:59.850Z,78.63
2018-11-03T05:55:28.366Z,75.93
2018-11-03T05:57:57.760Z,79.53
2018-11-03T06:00:28.293Z,73.57
2018-11-03T06:02:58.492Z,75.53
2018-11-03T06:05:27.236Z,77.83
2018-11-03T06:07:56.174Z,76.27
2018-11-03T06:10:24.826Z,82.07
2018-11-03T06:12:53.517Z,76.23
2018-11-03T06:15:23.142Z,75.13
2018-11-03T06:17:51.684Z,71.73
2018-11-03T06:20:20.497Z,73.60
2018-11-03T06:22:48.949Z,70.47
2018-11-03T06:25:18.454Z,70.33
2018-11-03T06:27:47.008Z,69.53
2018-11-03T06:30:15.589Z,68.43
2018-11-03T06:32:44.215Z,64.37
2018-11-03T06:35:12.880Z,66.17
2018-11-03T06:37:41.448Z,65.73
2018-11-03T06:40:10.298Z,63.97
2018-11-03T06:42:39.546Z,66.77
2018-11-03T06:45:09.108Z,61.37
2018-11-03T06:47:37.757Z,63.23
2018-11-03T06:50:07.443Z,59.73
2018-11-03T06:52:36.042Z,61.17
2018-11-03T06:55:04.730Z,60.33
2018-11-03T06:57:33.272Z,65.87
2018-11-03T07:00:01.900Z,69.60
2018-11-03T07:02:30.494Z,69.97
2018-11-03T07:04:59.144Z,71.40
2018-11-03T07:07:27.870Z,65.40
2018-11-03T07:09:56.597Z,63.70
2018-11-03T07:12:25.297Z,64.55
2018-11-03T07:14:54.662Z,62.30
2018-11-03T07:17:23.253Z,65.07
2018-11-03T07:19:51.888Z,68.17
2018-11-03T07:22:20.612Z,65.87
2018-11-03T07:24:49.222Z,69.07
2018-11-03T07:27:17.761Z,68.47
2018-11-03T07:29:46.313Z,68.20
2018-11-03T07:32:14.841Z,66.37
2018-11-03T07:34:43.354Z,65.47
2018-11-03T07:37:11.883Z,69.70
2018-11-03T07:39:40.526Z,68.93
2018-11-03T07:42:09.094Z,67.43
2018-11-03T07:44:37.846Z,66.50
2018-11-03T07:47:06.551Z,69.37
2018-11-03T07:49:35.212Z,73.17
2018-11-03T07:52:03.654Z,67.33
2018-11-03T07:54:32.393Z,61.43
2018-11-03T07:57:00.901Z,66.67
2018-11-03T07:59:29.742Z,68.03
2018-11-03T08:01:58.447Z,65.87
2018-11-03T08:04:27.890Z,61.87
2018-11-03T08:06:56.526Z,61.63
2018-11-03T08:09:25.074Z,63.27
2018-11-03T08:11:53.930Z,65.03
2018-11-03T08:14:22.374Z,62.03
2018-11-03T08:16:50.871Z,62.43
2018-11-03T08:19:19.802Z,64.37
2018-11-03T08:21:48.630Z,62.33
2018-11-03T08:24:17.411Z,61.67
2018-11-03T08:26:45.865Z,53.77
2018-11-03T08:29:14.477Z,51.90
2018-11-03T08:31:43.210Z,49.47
2018-11-03T08:34:11.994Z,55.87
2018-11-03T08:36:41.254Z,49.77
2018-11-03T08:39:11.271Z,46.37
2018-11-03T08:41:39.993Z,45.60
2018-11-03T08:44:08.982Z,45.03
2018-11-03T08:46:37.901Z,44.33
2018-11-03T08:49:06.862Z,43.57
2018-11-03T08:51:35.752Z,41.33
2018-11-03T08:54:04.543Z,38.70
2018-11-03T08:56:33.325Z,40.13
2018-11-03T08:59:01.871Z,39.10
2018-11-03T09:01:30.463Z,44.50
2018-11-03T09:03:59.086Z,42.47
2018-11-03T09:06:27.838Z,44.50
2018-11-03T09:08:56.437Z,41.07
2018-11-03T09:11:25.040Z,40.77
2018-11-03T09:13:53.556Z,40.00
2018-11-03T09:16:22.173Z,39.50
2018-11-03T09:18:51.383Z,38.23
2018-11-03T09:21:19.937Z,38.38
2018-11-03T09:23:48.535Z,39.97
2018-11-03T09:26:17.073Z,36.47
2018-11-03T09:28:45.744Z,39.40
2018-11-03T09:31:14.571Z,34.90
2018-11-03T09:33:43.134Z,34.73
2018-11-03T09:36:11.743Z,35.77
2018-11-03T09:38:40.662Z,33.00
2018-11-03T09:41:09.891Z,34.77
2018-11-03T09:43:38.519Z,34.63
2018-11-03T09:46:07.557Z,29.27
2018-11-03T09:48:36.315Z,30.60
2018-11-03T09:51:05.244Z,30.33
2018-11-03T09:53:33.965Z,32.50
2018-11-03T09:56:02.686Z,29.83
2018-11-03T09:58:31.605Z,32.17
2018-11-03T10:01:00.519Z,30.75
2018-11-03T10:03:29.395Z,30.17
2018-11-03T10:05:58.094Z,29.33
2018-11-03T10:08:27.028Z,31.40
2018-11-03T10:10:55.866Z,29.20
2018-11-03T10:13:24.542Z,28.87
2018-11-03T10:15:53.319Z,30.13
2018-11-03T10:18:22.373Z,28.77
2018-11-03T10:20:51.321Z,26.30
2018-11-03T10:23:20.034Z,25.17
2018-11-03T10:25:48.547Z,24.23
2018-11-03T10:28:17.209Z,25.70
2018-11-03T10:30:45.821Z,24.47
2018-11-03T10:33:14.543Z,26.47
2018-11-03T10:35:43.257Z,22.13
2018-11-03T10:38:11.857Z,23.70
2018-11-03T10:40:40.382Z,22.67
2018-11-03T10:43:09.054Z,27.63
2018-11-03T10:45:37.763Z,25.63
2018-11-03T10:48:06.505Z,22.37
2018-11-03T10:50:35.068Z,22.93
2018-11-03T10:53:03.732Z,22.33
2018-11-03T11:02:25.071Z,24.20
2018-11-03T11:04:58.982Z,23.63
2018-11-03T11:07:32.984Z,25.83
2018-11-03T11:10:06.720Z,22.47
2018-11-03T11:13:41.539Z,25.43
2018-11-03T11:16:11.083Z,22.40
2018-11-03T11:18:39.777Z,21.60
2018-11-03T11:21:09.428Z,27.23
2018-11-03T11:23:38.004Z,21.83
2018-11-03T11:26:06.638Z,20.67
2018-11-03T11:28:35.346Z,20.47
2018-11-03T11:31:04.013Z,19.33
2018-11-03T11:33:32.598Z,20.40
2018-11-03T11:36:01.184Z,20.83
2018-11-03T11:38:29.802Z,18.27
2018-11-03T11:40:58.579Z,21.10
2018-11-03T11:43:27.881Z,20.03
2018-11-03T11:45:56.453Z,18.97
2018-11-03T11:48:25.061Z,20.83
2018-11-03T11:50:53.793Z,19.33
2018-11-03T11:53:22.723Z,21.97
2018-11-03T11:55:51.299Z,20.03
2018-11-03T11:58:19.780Z,20.80
2018-11-03T12:00:48.643Z,22.52
2018-11-03T12:03:17.204Z,19.33
2018-11-03T12:05:45.941Z,21.00
2018-11-03T12:08:15.211Z,20.37
2018-11-03T12:10:43.928Z,21.50
2018-11-03T12:13:12.562Z,21.13
2018-11-03T12:15:41.067Z,21.20
2018-11-03T12:18:09.887Z,21.53
2018-11-03T12:20:38.624Z,22.33
2018-11-03T12:23:07.284Z,20.80
2018-11-03T12:25:36.281Z,22.00
2018-11-03T12:28:05.088Z,22.07
2018-11-03T12:30:33.713Z,21.60
2018-11-03T12:33:02.541Z,21.27
2018-11-03T12:35:31.248Z,20.33
2018-11-03T12:38:00.088Z,20.03
2018-11-03T12:40:28.759Z,20.33
2018-11-03T12:42:57.407Z,21.77
2018-11-03T12:45:25.980Z,24.97
2018-11-03T12:47:54.785Z,25.23
2018-11-03T12:50:23.298Z,22.90
2018-11-03T12:52:51.918Z,25.87
2018-11-03T12:55:20.674Z,31.47
2018-11-03T12:57:49.335Z,25.03
2018-11-03T13:00:18.114Z,30.05
2018-11-03T13:02:48.086Z,28.57
2018-11-03T13:05:16.982Z,30.20
2018-11-03T13:07:46.191Z,28.63
2018-11-03T13:10:14.827Z,28.00
2018-11-03T13:12:43.772Z,27.47
2018-11-03T13:15:13.807Z,38.50
2018-11-03T13:17:42.765Z,27.17
2018-11-03T13:20:12.713Z,27.53
2018-11-03T13:22:41.846Z,24.27
2018-11-03T13:25:11.455Z,27.10
2018-11-03T13:27:40.658Z,28.30
2018-11-03T13:30:11.618Z,28.77
2018-11-03T13:32:40.492Z,28.43
2018-11-03T13:35:10.244Z,26.20
2018-11-03T13:37:39.138Z,24.37
2018-11-03T13:40:09.012Z,28.93
2018-11-03T13:42:37.517Z,26.27
2018-11-03T13:45:07.529Z,26.00
2018-11-03T13:47:36.931Z,26.27
2018-11-03T13:50:10.478Z,28.87
2018-11-03T13:52:39.341Z,29.60
2018-11-03T13:55:08.724Z,29.07
2018-11-03T13:57:37.503Z,26.50
2018-11-03T14:00:06.954Z,28.40
2018-11-03T14:02:35.804Z,30.93
2018-11-03T14:05:04.425Z,29.80
2018-11-03T14:07:33.415Z,32.63
2018-11-03T14:10:03.007Z,32.53
2018-11-03T14:12:31.596Z,33.07
2018-11-03T14:15:00.111Z,38.13
2018-11-03T14:17:28.788Z,37.90
2018-11-03T14:19:57.365Z,40.27
2018-11-03T14:22:25.870Z,39.00
2018-11-03T14:24:54.778Z,37.80
2018-11-03T14:27:23.403Z,43.27
2018-11-03T14:29:51.916Z,42.70
2018-11-03T14:32:20.461Z,40.87
2018-11-03T14:34:49.052Z,38.27
2018-11-03T14:37:17.592Z,39.13
2018-11-03T14:39:46.158Z,40.27
2018-11-03T14:42:14.886Z,41.67
2018-11-03T14:44:43.502Z,41.90
2018-11-03T14:47:12.517Z,49.80
2018-11-03T14:49:41.166Z,50.57
2018-11-03T14:52:10.066Z,48.70
2018-11-03T14:54:38.823Z,49.10
2018-11-03T14:57:07.702Z,47.50
2018-11-03T14:59:36.492Z,51.73
2018-11-03T15:02:05.038Z,45.73
2018-11-03T15:04:33.662Z,53.03
2018-11-03T15:07:02.522Z,52.50
2018-11-03T15:09:31.323Z,53.47
2018-11-03T15:12:00.165Z,49.60
2018-11-03T15:14:28.937Z,50.83
2018-11-03T15:16:57.511Z,55.63
2018-11-03T15:19:26.114Z,56.53
2018-11-03T15:21:54.913Z,53.20
2018-11-03T15:24:23.701Z,55.17
2018-11-03T15:26:52.777Z,54.63
2018-11-03T15:29:21.373Z,59.93
2018-11-03T15:31:49.938Z,58.23
2018-11-03T15:34:18.595Z,78.13
2018-11-03T15:36:47.487Z,93.10
2018-11-03T15:39:16.072Z,93.17
2018-11-03T15:41:44.617Z,89.70
2018-11-03T15:44:13.334Z,69.30
2018-11-03T15:46:42.351Z,64.17
2018-11-03T15:49:11.410Z,61.73
2018-11-03T15:51:40.050Z,63.10
2018-11-03T15:54:09.834Z,62.77
2018-11-03T15:56:38.452Z,65.17
2018-11-03T15:59:07.215Z,62.63
2018-11-03T16:01:36.944Z,66.13
2018-11-03T16:04:05.944Z,65.53
2018-11-03T16:06:34.389Z,64.87
2018-11-03T16:09:03.331Z,70.03
2018-11-03T16:11:32.221Z,64.90
2018-11-03T16:14:00.914Z,65.57
2018-11-03T16:16:29.888Z,66.57
2018-11-03T16:18:58.374Z,66.57
2018-11-03T16:21:27.116Z,66.20
2018-11-03T16:23:55.826Z,71.07
2018-11-03T16:26:24.669Z,69.50
2018-11-03T16:28:53.140Z,69.37
2018-11-03T16:31:21.772Z,73.40
2018-11-03T16:33:50.458Z,70.47
2018-11-03T16:36:19.029Z,75.47
2018-11-03T16:38:47.781Z,77.70
2018-11-03T16:41:16.431Z,73.85
2018-11-03T16:43:45.002Z,79.50
2018-11-03T16:46:13.690Z,75.00
2018-11-03T16:48:42.286Z,78.47
2018-11-03T16:51:11.286Z,78.97
2018-11-03T16:53:40.073Z,73.97
2018-11-03T16:56:10.011Z,74.33
2018-11-03T16:58:38.821Z,76.93
2018-11-03T17:01:07.456Z,86.93
2018-11-03T17:03:36.321Z,84.63
2018-11-03T17:06:05.329Z,81.80
2018-11-03T17:08:34.289Z,84.00
2018-11-03T17:11:02.855Z,80.90
2018-11-03T17:13:31.497Z,79.63
2018-11-03T17:16:00.031Z,82.67
2018-11-03T17:18:28.751Z,82.90
2018-11-03T17:20:57.330Z,89.40
2018-11-03T17:23:26.313Z,86.43
2018-11-03T17:25:54.923Z,90.60
2018-11-03T17:28:23.730Z,93.53
2018-11-03T17:30:52.352Z,89.17
2018-11-03T17:33:20.981Z,85.27
2018-11-03T17:35:49.650Z,75.57
2018-11-03T17:38:18.249Z,77.00
2018-11-03T17:40:46.946Z,76.47
2018-11-03T17:43:15.587Z,86.40
2018-11-03T17:45:44.350Z,78.03
2018-11-03T17:48:12.807Z,76.43
2018-11-03T17:50:41.572Z,77.53
2018-11-03T17:53:10.372Z,73.47
2018-11-03T17:55:38.949Z,71.23
2018-11-03T17:58:07.635Z,74.13
2018-11-03T18:00:36.371Z,72.23
2018-11-03T18:03:05.554Z,74.83
2018-11-03T18:05:34.242Z,71.93
2018-11-03T18:08:02.917Z,69.10
2018-11-03T18:10:31.848Z,66.97
2018-11-03T18:13:00.821Z,66.67
2018-11-03T18:15:29.569Z,66.53
2018-11-03T18:17:58.184Z,67.10
2018-11-03T18:20:26.936Z,67.93
2018-11-03T18:22:55.968Z,68.97
2018-11-03T18:25:24.584Z,70.17
2018-11-03T18:27:53.574Z,70.43
2018-11-03T18:30:22.088Z,73.80
2018-11-03T18:32:51.130Z,69.00
2018-11-03T18:35:19.738Z,72.27
2018-11-03T18:37:48.383Z,76.23
2018-11-03T18:40:17.952Z,70.97
2018-11-03T18:42:46.486Z,72.13
2018-11-03T18:45:15.293Z,78.17
2018-11-03T18:47:43.889Z,72.33
2018-11-03T18:50:14.379Z,70.23
2018-11-03T18:52:43.444Z,73.33
2018-11-03T18:55:13.135Z,70.70
2018-11-03T18:57:42.502Z,74.20
2018-11-03T19:00:11.772Z,68.60
2018-11-03T19:02:41.595Z,69.37
2018-11-03T19:05:10.512Z,70.33
2018-11-03T19:07:39.179Z,67.87
2018-11-03T19:10:08.693Z,66.27
2018-11-03T19:12:37.367Z,69.93
2018-11-03T19:15:06.989Z,68.13
2018-11-03T19:17:36.559Z,71.93
2018-11-03T19:20:06.793Z,79.27
2018-11-03T19:22:35.948Z,81.57
2018-11-03T19:25:04.760Z,77.43
2018-11-03T19:27:33.478Z,78.10
2018-11-03T19:30:02.161Z,72.17
2018-11-03T19:32:30.754Z,71.67
2018-11-03T19:34:59.299Z,68.97
2018-11-03T19:37:28.018Z,69.13
2018-11-03T19:39:56.617Z,74.57
2018-11-03T19:42:25.253Z,70.15
2018-11-03T19:44:53.861Z,65.73
2018-11-03T19:47:22.866Z,72.57
2018-11-03T19:49:51.508Z,70.43
2018-11-03T19:52:20.203Z,71.13
2018-11-03T19:54:48.664Z,65.83
2018-11-03T19:57:17.272Z,73.13
2018-11-03T19:59:46.032Z,69.40
2018-11-03T20:02:14.858Z,70.57
2018-11-03T20:04:43.362Z,72.93
2018-11-03T20:07:12.141Z,70.00
2018-11-03T20:09:40.665Z,68.67
2018-11-03T20:12:09.516Z,71.30
2018-11-03T20:14:37.971Z,73.53
2018-11-03T20:17:06.721Z,70.50
2018-11-03T20:19:35.229Z,68.13
2018-11-03T20:22:04.074Z,73.83
2018-11-03T20:24:32.694Z,68.77
2018-11-03T20:27:01.564Z,70.70
2018-11-03T20:29:30.046Z,68.47
2018-11-03T20:31:58.588Z,68.83
2018-11-03T20:34:27.442Z,70.57
2018-11-03T20:36:56.153Z,70.97
2018-11-03T20:39:25.065Z,70.43
2018-11-03T20:41:53.878Z,73.83
2018-11-03T20:44:22.464Z,76.37
2018-11-03T20:46:51.239Z,69.37
2018-11-03T20:49:19.799Z,73.87
2018-11-03T20:51:48.587Z,70.67
2018-11-03T20:54:18.290Z,77.03
2018-11-03T20:56:46.875Z,72.37
2018-11-03T20:59:15.595Z,74.53
2018-11-03T21:01:44.433Z,71.70
2018-11-03T21:04:13.113Z,75.10
2018-11-03T21:06:41.749Z,74.13
2018-11-03T21:09:11.074Z,71.63
2018-11-03T21:11:39.921Z,71.20
2018-11-03T21:14:08.372Z,74.63
2018-11-03T21:16:37.109Z,66.33
2018-11-03T21:22:38.583Z,74.27
2018-11-03T21:25:07.470Z,76.10
2018-11-03T21:27:36.271Z,78.80
2018-11-03T21:30:06.323Z,76.00
2018-11-03T21:32:34.893Z,74.23
2018-11-03T21:35:04.260Z,75.23
2018-11-03T21:37:32.780Z,73.80
2018-11-03T21:40:01.475Z,74.20
2018-11-03T21:42:30.034Z,74.90
2018-11-03T21:44:58.746Z,74.70
2018-11-03T21:47:27.420Z,73.00
2018-11-03T21:49:56.010Z,67.83
2018-11-03T21:52:24.598Z,77.90
2018-11-03T21:54:53.051Z,71.90
2018-11-03T21:57:23.504Z,71.63
2018-11-03T21:59:52.054Z,74.33
2018-11-03T22:02:20.482Z,77.20
2018-11-03T22:04:50.024Z,73.57
2018-11-03T22:07:18.776Z,77.73
2018-11-03T22:09:47.552Z,73.60
2018-11-03T22:12:16.018Z,74.57
2018-11-03T22:14:45.661Z,77.97
2018-11-03T22:17:14.734Z,79.27
2018-11-03T22:19:43.267Z,72.23
2018-11-03T22:22:11.749Z,71.23
2018-11-03T22:24:40.206Z,78.00
2018-11-03T22:27:08.923Z,71.53
2018-11-03T22:29:37.373Z,76.10
2018-11-03T22:32:06.066Z,73.83
2018-11-03T22:34:35.094Z,71.97
2018-11-03T22:37:03.713Z,74.83
2018-11-03T22:39:32.369Z,76.07
2018-11-03T22:42:00.897Z,78.07
2018-11-03T22:44:30.367Z,76.07
2018-11-03T22:47:00.287Z,76.13
2018-11-03T22:49:28.843Z,75.70
2018-11-03T22:51:57.346Z,75.03
2018-11-03T22:54:25.889Z,76.77
2018-11-03T22:56:54.660Z,74.40
2018-11-03T22:59:23.248Z,73.30
2018-11-03T23:01:51.727Z,78.83
2018-11-03T23:04:20.220Z,74.47
2018-11-03T23:06:48.929Z,72.53
2018-11-03T23:09:17.517Z,75.40
2018-11-03T23:11:46.585Z,73.60
2018-11-03T23:14:15.073Z,70.37
2018-11-03T23:16:43.655Z,72.17
2018-11-03T23:19:12.379Z,66.17
2018-11-03T23:21:40.897Z,72.80
2018-11-03T23:24:09.480Z,73.37
2018-11-03T23:26:38.209Z,69.13
2018-11-03T23:29:06.844Z,70.13
2018-11-03T23:31:35.591Z,69.17
2018-11-03T23:38:40.689Z,73.13
2018-11-03T23:41:10.197Z,63.67
2018-11-03T23:43:38.847Z,70.40
2018-11-03T23:46:07.483Z,64.50
2018-11-03T23:48:35.874Z,71.53
2018-11-03T23:51:04.418Z,68.83
2018-11-03T23:53:32.988Z,69.73
2018-11-03T23:56:03.876Z,69.00
2018-11-03T23:58:32.522Z,69.07
